Pagina principale
METAR-TAF:

METAR-TAF

Aeroporti :

Novara, Italia

Aeroporto militare Cameri

latitudine: 45-31N, longitudine: 008-40E, altezza: 178 m

Osservazione

Il bollettino è stato emesso 7 ore e 13 minuti fa, alle 17:55 UTC
Vento 4 kt da sud-ovest
Temperature 3°C
Umidità 87%
Pressione 1004 hPa
Visibilità: 5000 m
foschia

METAR: LIMN 161755Z 23004KT 5000 BR NSC 03/01 Q1004 RMK SKC VIS MIN 5000 WHT

Ora: 02:08 (01:08 UTC)

Previsione

Il bollettino è stato emesso 8 ore e 8 minuti fa, alle 17:00 UTC
Previsione valida dal 16 alle 18 UTC al 17 alle 03 UTC
Vento 5 kt da ovest
Visibilità: 6000 m
Nubi sparse ad un'altezza di 5000 ft
Temporaneamente
dal 16 alle 18 UTC al 17 alle 03 UTC
Visibilità: 3000 m
foschia

TAF: LIMN 161700Z 1618/1703 26005KT 6000 SCT050 TEMPO 1618/1703 3000 BR

Osservazioni e previsioni meteorologiche di più di 4000 aeroporti (messaggi METAR e TAF).

Le stazioni disponibili sono rappresentate dai dischi gialli e rossi sulla carta.

Puntare il mouse per vedere il nome della stazione.

Clicca sopra per visualizzare le osservazioni e previsioni meteorologiche.

Per cambiare la mappa : fare clic sui pulsanti verdi con una croce nera per ingrandire, il pulsante verde con un trattino per diminuire, o sulla freccia verde per le mappe adiacenti.


METAR-TAF: